createdAt,value
2018-08-13T00:00:26.937Z,992.30
2018-08-13T00:01:26.933Z,992.30
2018-08-13T00:02:26.929Z,992.33
2018-08-13T00:03:26.925Z,992.27
2018-08-13T00:04:26.920Z,992.28
2018-08-13T00:05:26.917Z,992.26
2018-08-13T00:06:26.914Z,992.22
2018-08-13T00:07:26.909Z,992.19
2018-08-13T00:08:26.905Z,992.18
2018-08-13T00:09:26.901Z,992.16
2018-08-13T00:10:26.898Z,992.14
2018-08-13T00:11:26.893Z,992.13
2018-08-13T00:12:26.889Z,992.10
2018-08-13T00:13:26.885Z,992.08
2018-08-13T00:14:26.882Z,992.05
2018-08-13T00:15:26.877Z,992.04
2018-08-13T00:16:26.877Z,992.03
2018-08-13T00:17:26.876Z,992.01
2018-08-13T00:18:26.866Z,992.02
2018-08-13T00:19:26.861Z,991.98
2018-08-13T00:20:26.857Z,991.98
2018-08-13T00:21:26.853Z,991.95
2018-08-13T00:22:26.850Z,991.94
2018-08-13T00:23:26.845Z,991.91
2018-08-13T00:24:26.841Z,991.87
2018-08-13T00:25:26.838Z,991.84
2018-08-13T00:26:26.834Z,991.83
2018-08-13T00:27:26.830Z,991.86
2018-08-13T00:28:26.825Z,991.82
2018-08-13T00:29:26.821Z,991.77
2018-08-13T00:30:26.820Z,991.79
2018-08-13T00:31:26.813Z,991.81
2018-08-13T00:32:26.809Z,991.79
2018-08-13T00:33:26.805Z,991.79
2018-08-13T00:34:26.801Z,991.81
2018-08-13T00:35:26.796Z,991.79
2018-08-13T00:36:26.793Z,991.78
2018-08-13T00:37:26.788Z,991.79
2018-08-13T00:38:26.784Z,991.80
2018-08-13T00:39:26.780Z,991.76
2018-08-13T00:40:26.776Z,991.78
2018-08-13T00:41:26.772Z,991.76
2018-08-13T00:42:26.768Z,991.74
2018-08-13T00:43:26.763Z,991.74
2018-08-13T00:44:26.760Z,991.72
2018-08-13T00:45:26.755Z,991.73
2018-08-13T00:46:26.751Z,991.69
2018-08-13T00:47:26.747Z,991.72
2018-08-13T00:48:26.742Z,991.71
2018-08-13T00:49:26.739Z,991.69
2018-08-13T00:50:26.735Z,991.68
2018-08-13T00:51:26.730Z,991.63
2018-08-13T00:52:26.726Z,991.62
2018-08-13T00:53:26.722Z,991.55
2018-08-13T00:54:26.723Z,991.52
2018-08-13T00:55:26.713Z,991.51
2018-08-13T00:56:26.710Z,991.50
2018-08-13T00:57:26.706Z,991.49
2018-08-13T00:58:26.702Z,991.47
2018-08-13T00:59:26.699Z,991.46
2018-08-13T01:00:26.693Z,991.42
2018-08-13T01:01:26.689Z,991.42
2018-08-13T01:02:26.685Z,991.42
2018-08-13T01:03:26.681Z,991.39
2018-08-13T01:04:26.677Z,991.43
2018-08-13T01:05:26.673Z,991.37
2018-08-13T01:06:26.669Z,991.36
2018-08-13T01:07:26.664Z,991.40
2018-08-13T01:08:26.660Z,991.32
2018-08-13T01:09:26.657Z,991.28
2018-08-13T01:10:26.653Z,991.24
2018-08-13T01:11:26.651Z,991.26
2018-08-13T01:12:26.645Z,991.21
2018-08-13T01:13:26.641Z,991.23
2018-08-13T01:14:26.637Z,991.21
2018-08-13T01:15:26.632Z,991.16
2018-08-13T01:16:26.629Z,991.14
2018-08-13T01:17:26.625Z,991.15
2018-08-13T01:18:26.622Z,991.16
2018-08-13T01:19:26.617Z,991.13
2018-08-13T01:20:26.614Z,991.13
2018-08-13T01:21:26.611Z,991.15
2018-08-13T01:22:26.607Z,991.12
2018-08-13T01:23:26.603Z,991.14
2018-08-13T01:24:26.599Z,991.13
2018-08-13T01:25:26.596Z,991.11
2018-08-13T01:26:26.592Z,991.14
2018-08-13T01:27:26.589Z,991.09
2018-08-13T01:28:26.585Z,991.10
2018-08-13T01:29:26.582Z,991.10
2018-08-13T01:30:26.579Z,991.09
2018-08-13T01:31:26.575Z,991.06
2018-08-13T01:32:26.574Z,991.07
2018-08-13T01:33:26.568Z,991.05
2018-08-13T01:34:26.565Z,991.07
2018-08-13T01:35:26.561Z,991.04
2018-08-13T01:36:26.559Z,991.00
2018-08-13T01:37:26.554Z,991.00
2018-08-13T01:38:26.551Z,990.95
2018-08-13T01:39:26.547Z,990.97
2018-08-13T01:40:26.544Z,990.97
2018-08-13T01:41:26.541Z,990.94
2018-08-13T01:42:26.538Z,990.90
2018-08-13T01:43:26.534Z,990.92
2018-08-13T01:44:26.532Z,990.93
2018-08-13T01:45:26.528Z,990.96
2018-08-13T01:46:26.525Z,990.92
2018-08-13T01:47:26.521Z,990.88
2018-08-13T01:48:26.517Z,990.84
2018-08-13T01:49:26.514Z,990.83
2018-08-13T01:50:26.511Z,990.84
2018-08-13T01:51:26.507Z,990.82
2018-08-13T01:52:26.504Z,990.83
2018-08-13T01:53:26.501Z,990.81
2018-08-13T01:54:26.497Z,990.82
2018-08-13T01:55:26.498Z,990.84
2018-08-13T01:56:26.490Z,990.79
2018-08-13T01:57:26.487Z,990.80
2018-08-13T01:58:26.484Z,990.82
2018-08-13T01:59:26.480Z,990.80
2018-08-13T02:00:26.477Z,990.82
2018-08-13T02:01:26.588Z,990.88
2018-08-13T02:02:26.471Z,991.06
2018-08-13T02:03:26.467Z,991.37
2018-08-13T02:04:26.464Z,991.47
2018-08-13T02:05:26.461Z,991.56
2018-08-13T02:06:26.458Z,991.56
2018-08-13T02:07:26.454Z,991.21
2018-08-13T02:08:26.450Z,991.44
2018-08-13T02:09:26.453Z,991.61
2018-08-13T02:10:26.443Z,991.53
2018-08-13T02:11:26.440Z,991.40
2018-08-13T02:12:26.437Z,991.36
2018-08-13T02:13:26.433Z,991.28
2018-08-13T02:14:26.430Z,991.28
2018-08-13T02:15:26.425Z,991.33
2018-08-13T02:16:26.422Z,991.47
2018-08-13T02:17:26.419Z,991.52
2018-08-13T02:18:26.415Z,991.51
2018-08-13T02:19:26.412Z,991.50
2018-08-13T02:20:26.409Z,991.56
2018-08-13T02:21:26.405Z,991.52
2018-08-13T02:22:26.402Z,991.45
2018-08-13T02:23:26.398Z,991.53
2018-08-13T02:24:26.397Z,991.51
2018-08-13T02:25:26.392Z,991.53
2018-08-13T02:26:26.393Z,991.58
2018-08-13T02:27:26.388Z,991.60
2018-08-13T02:28:26.382Z,991.59
2018-08-13T02:29:26.382Z,991.62
2018-08-13T02:30:26.376Z,991.58
2018-08-13T02:31:26.372Z,991.56
2018-08-13T02:32:26.375Z,991.54
2018-08-13T02:33:26.366Z,991.52
2018-08-13T02:34:26.368Z,991.56
2018-08-13T02:35:26.361Z,991.55
2018-08-13T02:36:26.357Z,991.57
2018-08-13T02:37:26.354Z,991.55
2018-08-13T02:38:26.351Z,991.54
2018-08-13T02:39:26.349Z,991.57
2018-08-13T02:40:26.356Z,991.52
2018-08-13T02:41:26.342Z,991.56
2018-08-13T02:42:26.338Z,991.62
2018-08-13T02:43:26.335Z,991.59
2018-08-13T02:44:26.331Z,991.54
2018-08-13T02:45:26.328Z,991.52
2018-08-13T02:46:26.326Z,991.54
2018-08-13T02:47:26.322Z,991.48
2018-08-13T02:48:26.319Z,991.46
2018-08-13T02:49:26.315Z,991.43
2018-08-13T02:50:26.312Z,991.40
2018-08-13T02:51:26.309Z,991.42
2018-08-13T02:52:26.307Z,991.49
2018-08-13T02:53:26.304Z,991.51
2018-08-13T02:54:26.301Z,991.51
2018-08-13T02:55:26.297Z,991.47
2018-08-13T02:56:26.295Z,991.52
2018-08-13T02:57:26.292Z,991.54
2018-08-13T02:58:26.289Z,991.54
2018-08-13T02:59:26.291Z,991.50
2018-08-13T03:00:26.284Z,991.50
2018-08-13T03:01:26.280Z,991.50
2018-08-13T03:02:26.277Z,991.43
2018-08-13T03:03:26.274Z,991.46
2018-08-13T03:04:26.271Z,991.42
2018-08-13T03:05:26.268Z,991.37
2018-08-13T03:06:26.265Z,991.34
2018-08-13T03:07:26.260Z,991.38
2018-08-13T03:08:26.257Z,991.45
2018-08-13T03:09:26.257Z,991.50
2018-08-13T03:10:26.251Z,991.52
2018-08-13T03:11:26.247Z,991.61
2018-08-13T03:12:26.243Z,991.62
2018-08-13T03:13:26.240Z,991.59
2018-08-13T03:14:26.235Z,991.59
2018-08-13T03:15:26.231Z,991.55
2018-08-13T03:16:26.228Z,991.60
2018-08-13T03:17:26.224Z,991.53
2018-08-13T03:18:26.220Z,991.52
2018-08-13T03:19:26.218Z,991.45
2018-08-13T03:20:26.212Z,991.52
2018-08-13T03:21:26.207Z,991.59
2018-08-13T03:22:26.204Z,991.67
2018-08-13T03:23:26.198Z,991.69
2018-08-13T03:24:26.194Z,991.70
2018-08-13T03:25:26.190Z,991.64
2018-08-13T03:26:26.185Z,991.61
2018-08-13T03:27:26.180Z,991.61
2018-08-13T03:28:26.176Z,991.59
2018-08-13T03:29:26.174Z,991.61
2018-08-13T03:30:26.167Z,991.58
2018-08-13T03:31:26.161Z,991.60
2018-08-13T03:32:26.157Z,991.71
2018-08-13T03:33:26.163Z,991.89
2018-08-13T03:34:26.155Z,991.94
2018-08-13T03:35:26.142Z,991.91
2018-08-13T03:36:26.137Z,991.91
2018-08-13T03:37:26.137Z,991.96
2018-08-13T03:38:26.128Z,992.07
2018-08-13T03:39:26.122Z,992.18
2018-08-13T03:40:26.116Z,992.15
2018-08-13T03:41:26.113Z,992.19
2018-08-13T03:42:26.107Z,992.16
2018-08-13T03:43:26.102Z,992.14
2018-08-13T03:44:26.096Z,992.11
2018-08-13T03:45:26.093Z,992.14
2018-08-13T03:46:26.087Z,992.11
2018-08-13T03:47:26.081Z,992.10
2018-08-13T03:48:26.076Z,992.11
2018-08-13T03:49:26.073Z,992.22
2018-08-13T03:50:26.066Z,992.19
2018-08-13T03:51:26.060Z,992.16
2018-08-13T03:52:26.056Z,992.22
2018-08-13T03:53:26.051Z,992.21
2018-08-13T03:54:26.050Z,992.22
2018-08-13T03:55:26.040Z,992.25
2018-08-13T03:56:26.035Z,992.23
2018-08-13T03:57:26.030Z,992.28
2018-08-13T03:58:26.025Z,992.30
2018-08-13T03:59:26.019Z,992.30
2018-08-13T04:00:26.014Z,992.31
2018-08-13T04:01:26.009Z,992.32
2018-08-13T04:02:26.003Z,992.34
2018-08-13T04:03:25.998Z,992.39
2018-08-13T04:04:25.991Z,992.39
2018-08-13T04:05:25.987Z,992.39
2018-08-13T04:06:25.982Z,992.43
2018-08-13T04:07:25.975Z,992.44
2018-08-13T04:08:25.974Z,992.45
2018-08-13T04:09:25.965Z,992.47
2018-08-13T04:10:25.959Z,992.44
2018-08-13T04:11:25.953Z,992.43
2018-08-13T04:12:25.948Z,992.32
2018-08-13T04:13:25.943Z,992.32
2018-08-13T04:14:25.938Z,992.30
2018-08-13T04:15:25.931Z,992.33
2018-08-13T04:16:25.927Z,992.29
2018-08-13T04:17:25.921Z,992.27
2018-08-13T04:18:25.915Z,992.21
2018-08-13T04:19:25.909Z,992.27
2018-08-13T04:20:25.904Z,992.20
2018-08-13T04:21:25.899Z,992.28
2018-08-13T04:22:25.893Z,992.22
2018-08-13T04:23:25.887Z,992.20
2018-08-13T04:24:25.882Z,992.13
2018-08-13T04:25:25.876Z,992.08
2018-08-13T04:26:25.870Z,992.09
2018-08-13T04:27:25.864Z,992.04
2018-08-13T04:28:25.860Z,991.97
2018-08-13T04:29:25.854Z,992.00
2018-08-13T04:30:25.847Z,992.00
2018-08-13T04:31:25.840Z,992.04
2018-08-13T04:32:25.834Z,991.93
2018-08-13T04:33:25.828Z,991.86
2018-08-13T04:34:25.822Z,991.79
2018-08-13T04:35:25.815Z,991.58
2018-08-13T04:36:25.809Z,991.46
2018-08-13T04:37:25.803Z,991.43
2018-08-13T04:38:25.798Z,991.48
2018-08-13T04:39:25.793Z,991.60
2018-08-13T04:40:25.785Z,991.70
2018-08-13T04:41:25.779Z,991.79
2018-08-13T04:42:25.772Z,991.85
2018-08-13T04:43:25.765Z,991.84
2018-08-13T04:44:25.763Z,991.81
2018-08-13T04:45:25.756Z,991.80
2018-08-13T04:46:25.748Z,991.78
2018-08-13T04:47:25.743Z,991.73
2018-08-13T04:48:25.735Z,991.70
2018-08-13T04:49:25.730Z,991.66
2018-08-13T04:50:25.723Z,991.58
2018-08-13T04:51:25.717Z,991.53
2018-08-13T04:52:25.711Z,991.45
2018-08-13T04:53:25.705Z,991.42
2018-08-13T04:54:25.699Z,991.41
2018-08-13T04:55:25.692Z,991.52
2018-08-13T04:56:25.687Z,991.61
2018-08-13T04:57:25.681Z,991.66
2018-08-13T04:58:25.675Z,991.68
2018-08-13T04:59:25.671Z,991.55
2018-08-13T05:00:25.664Z,991.45
2018-08-13T05:01:25.657Z,991.43
2018-08-13T05:02:25.651Z,991.41
2018-08-13T05:03:25.646Z,991.36
2018-08-13T05:04:25.642Z,991.37
2018-08-13T05:05:25.634Z,991.32
2018-08-13T05:06:25.628Z,991.25
2018-08-13T05:07:25.635Z,991.21
2018-08-13T05:08:25.615Z,991.21
2018-08-13T05:09:25.610Z,991.25
2018-08-13T05:10:25.604Z,991.25
2018-08-13T05:11:25.597Z,991.25
2018-08-13T05:12:25.591Z,991.16
2018-08-13T05:13:25.589Z,991.08
2018-08-13T05:14:25.579Z,991.02
2018-08-13T05:15:25.573Z,990.97
2018-08-13T05:16:25.570Z,990.90
2018-08-13T05:17:25.561Z,990.93
2018-08-13T05:18:25.555Z,990.80
2018-08-13T05:19:25.549Z,990.63
2018-08-13T05:20:25.542Z,990.62
2018-08-13T05:21:25.536Z,990.62
2018-08-13T05:22:25.530Z,990.58
2018-08-13T05:23:25.524Z,990.49
2018-08-13T05:24:25.516Z,990.40
2018-08-13T05:25:25.513Z,990.44
2018-08-13T05:26:25.503Z,990.34
2018-08-13T05:27:25.496Z,990.23
2018-08-13T05:28:25.489Z,990.23
2018-08-13T05:29:25.483Z,990.20
2018-08-13T05:30:25.495Z,990.22
2018-08-13T05:31:25.469Z,990.18
2018-08-13T05:32:25.463Z,990.19
2018-08-13T05:33:25.456Z,990.13
2018-08-13T05:34:25.449Z,990.15
2018-08-13T05:35:25.442Z,990.16
2018-08-13T05:36:25.436Z,990.16
2018-08-13T05:37:25.431Z,990.17
2018-08-13T05:38:25.426Z,990.23
2018-08-13T05:39:25.416Z,990.23
2018-08-13T05:40:25.409Z,990.25
2018-08-13T05:41:25.404Z,990.24
2018-08-13T05:42:25.401Z,990.19
2018-08-13T05:43:25.393Z,990.19
2018-08-13T05:44:25.386Z,990.22
2018-08-13T05:45:25.379Z,990.27
2018-08-13T05:46:25.373Z,990.30
2018-08-13T05:47:25.367Z,990.37
2018-08-13T05:48:25.361Z,990.41
2018-08-13T05:49:25.356Z,990.39
2018-08-13T05:50:25.351Z,990.38
2018-08-13T05:51:25.344Z,990.40
2018-08-13T05:52:25.339Z,990.45
2018-08-13T05:53:25.333Z,990.49
2018-08-13T05:54:25.329Z,990.49
2018-08-13T05:55:25.324Z,990.52
2018-08-13T05:56:25.318Z,990.56
2018-08-13T05:57:25.312Z,990.52
2018-08-13T05:58:25.307Z,990.57
2018-08-13T05:59:25.301Z,990.58
2018-08-13T06:00:25.296Z,990.61
2018-08-13T06:01:25.292Z,990.66
2018-08-13T06:02:25.287Z,990.61
2018-08-13T06:03:25.282Z,990.71
2018-08-13T06:04:25.277Z,990.69
2018-08-13T06:05:25.303Z,990.72
2018-08-13T06:06:25.269Z,990.72
2018-08-13T06:07:25.266Z,990.78
2018-08-13T06:08:25.257Z,990.80
2018-08-13T06:09:25.253Z,990.82
2018-08-13T06:10:25.248Z,990.85
2018-08-13T06:11:25.408Z,990.82
2018-08-13T06:12:25.239Z,990.82
2018-08-13T06:13:25.239Z,990.82
2018-08-13T06:14:25.278Z,990.84
2018-08-13T06:15:25.227Z,990.87
2018-08-13T06:16:25.221Z,990.89
2018-08-13T06:17:25.217Z,990.93
2018-08-13T06:18:25.213Z,990.95
2018-08-13T06:19:25.211Z,990.91
2018-08-13T06:20:25.203Z,990.94
2018-08-13T06:21:25.200Z,990.95
2018-08-13T06:22:25.263Z,990.98
2018-08-13T06:23:25.191Z,990.98
2018-08-13T06:24:25.327Z,991.06
2018-08-13T06:25:25.183Z,991.03
2018-08-13T06:26:25.178Z,990.98
2018-08-13T06:27:25.173Z,990.99
2018-08-13T06:28:25.169Z,991.02
2018-08-13T06:29:25.170Z,991.02
2018-08-13T06:30:25.162Z,990.99
2018-08-13T06:31:25.156Z,990.99
2018-08-13T06:32:25.158Z,991.07
2018-08-13T06:33:25.148Z,991.01
2018-08-13T06:34:25.145Z,991.02
2018-08-13T06:35:25.140Z,991.04
2018-08-13T06:36:25.135Z,991.05
2018-08-13T06:37:25.132Z,991.12
2018-08-13T06:38:25.128Z,991.16
2018-08-13T06:39:25.123Z,991.21
2018-08-13T06:40:25.120Z,991.23
2018-08-13T06:41:25.119Z,991.26
2018-08-13T06:42:25.112Z,991.25
2018-08-13T06:43:25.107Z,991.27
2018-08-13T06:44:25.105Z,991.25
2018-08-13T06:45:25.103Z,991.33
2018-08-13T06:46:25.096Z,991.29
2018-08-13T06:47:25.145Z,991.37
2018-08-13T06:48:25.092Z,991.37
2018-08-13T06:49:25.118Z,991.43
2018-08-13T06:50:25.081Z,991.46
2018-08-13T06:51:25.076Z,991.43
2018-08-13T06:52:25.073Z,991.46
2018-08-13T06:53:25.104Z,991.44
2018-08-13T06:54:25.066Z,991.44
2018-08-13T06:55:25.062Z,991.48
2018-08-13T06:56:25.064Z,991.44
2018-08-13T06:57:25.056Z,991.44
2018-08-13T06:58:25.052Z,991.40
2018-08-13T06:59:25.062Z,991.45
2018-08-13T07:00:25.045Z,991.44
2018-08-13T07:01:25.041Z,991.40
2018-08-13T07:02:25.038Z,991.48
2018-08-13T07:03:25.034Z,991.46
2018-08-13T07:04:25.136Z,991.49
2018-08-13T07:05:25.028Z,991.49
2018-08-13T07:06:25.025Z,991.50
2018-08-13T07:07:25.021Z,991.49
2018-08-13T07:08:25.017Z,991.47
2018-08-13T07:09:25.015Z,991.49
2018-08-13T07:10:25.012Z,991.49
2018-08-13T07:11:25.008Z,991.52
2018-08-13T07:12:25.004Z,991.46
2018-08-13T07:13:25.002Z,991.49
2018-08-13T07:14:24.999Z,991.49
2018-08-13T07:15:25.027Z,991.52
2018-08-13T07:16:24.992Z,991.52
2018-08-13T07:17:24.989Z,991.50
2018-08-13T07:18:24.991Z,991.54
2018-08-13T07:19:24.982Z,991.57
2018-08-13T07:20:24.979Z,991.58
2018-08-13T07:21:24.977Z,991.56
2018-08-13T07:22:24.987Z,991.58
2018-08-13T07:23:24.970Z,991.61
2018-08-13T07:24:24.968Z,991.58
2018-08-13T07:25:24.967Z,991.63
2018-08-13T07:26:24.960Z,991.61
2018-08-13T07:27:24.957Z,991.65
2018-08-13T07:28:24.953Z,991.66
2018-08-13T07:29:24.950Z,991.68
2018-08-13T07:30:24.951Z,991.70
2018-08-13T07:31:24.943Z,991.73
2018-08-13T07:32:24.940Z,991.71
2018-08-13T07:33:25.001Z,991.74
2018-08-13T07:34:24.944Z,991.75
2018-08-13T07:35:24.929Z,991.75
2018-08-13T07:36:24.926Z,991.78
2018-08-13T07:37:24.923Z,991.77
2018-08-13T07:38:24.920Z,991.72
2018-08-13T07:39:24.953Z,991.74
2018-08-13T07:40:24.914Z,991.80
2018-08-13T07:41:24.912Z,991.83
2018-08-13T07:42:24.907Z,991.85
2018-08-13T07:43:24.904Z,991.86
2018-08-13T07:44:24.900Z,991.80
2018-08-13T07:45:24.900Z,991.82
2018-08-13T07:46:24.917Z,991.79
2018-08-13T07:47:24.891Z,991.80
2018-08-13T07:48:24.888Z,991.79
2018-08-13T07:49:24.894Z,991.78
2018-08-13T07:50:24.883Z,991.78
2018-08-13T07:51:24.880Z,991.83
2018-08-13T07:52:24.877Z,991.78
2018-08-13T07:53:24.874Z,991.77
2018-08-13T07:54:24.872Z,991.82
2018-08-13T07:55:24.873Z,991.80
2018-08-13T07:56:24.866Z,991.84
2018-08-13T07:57:24.864Z,991.84
2018-08-13T07:58:24.861Z,991.83
2018-08-13T07:59:24.859Z,991.81
2018-08-13T08:00:24.857Z,991.75
2018-08-13T08:01:24.854Z,991.78
2018-08-13T08:02:24.853Z,991.80
2018-08-13T08:03:24.850Z,991.84
2018-08-13T08:04:24.850Z,991.76
2018-08-13T08:05:24.846Z,991.80
2018-08-13T08:06:24.843Z,991.77
2018-08-13T08:07:24.842Z,991.56
2018-08-13T08:08:24.839Z,991.78
2018-08-13T08:09:24.838Z,991.78
2018-08-13T08:10:24.837Z,991.70
2018-08-13T08:11:24.834Z,991.77
2018-08-13T08:12:24.833Z,991.73
2018-08-13T08:13:24.836Z,991.73
2018-08-13T08:14:24.833Z,991.78
2018-08-13T08:15:24.832Z,991.75
2018-08-13T08:16:24.832Z,991.78
2018-08-13T08:17:24.844Z,991.73
2018-08-13T08:18:24.834Z,991.72
2018-08-13T08:19:24.836Z,991.73
2018-08-13T08:20:24.838Z,991.74
2018-08-13T08:21:24.883Z,991.71
2018-08-13T08:22:24.846Z,991.77
2018-08-13T08:23:24.852Z,991.71
2018-08-13T08:24:24.853Z,991.72
2018-08-13T08:25:24.858Z,991.69
2018-08-13T08:26:24.866Z,991.75
2018-08-13T08:27:24.868Z,991.76
2018-08-13T08:28:24.874Z,991.70
2018-08-13T08:29:25.055Z,991.76
2018-08-13T08:30:24.886Z,991.73
2018-08-13T08:31:24.891Z,991.75
2018-08-13T08:32:24.896Z,991.77
2018-08-13T08:33:24.901Z,991.78
2018-08-13T08:34:24.922Z,991.79
2018-08-13T08:35:24.910Z,991.77
2018-08-13T08:36:24.915Z,991.76
2018-08-13T08:37:24.920Z,991.78
2018-08-13T08:38:24.925Z,991.79
2018-08-13T08:39:24.930Z,991.78
2018-08-13T08:40:24.994Z,991.80
2018-08-13T08:41:24.943Z,991.82
2018-08-13T08:42:24.949Z,991.82
2018-08-13T08:43:24.955Z,991.89
2018-08-13T08:44:24.963Z,991.82
2018-08-13T08:45:24.972Z,991.85
2018-08-13T08:46:24.979Z,991.79
2018-08-13T08:47:24.985Z,991.84
2018-08-13T08:48:24.993Z,991.81
2018-08-13T08:49:25.001Z,991.82
2018-08-13T08:50:25.009Z,991.83
2018-08-13T08:51:25.016Z,991.76
2018-08-13T08:52:25.023Z,991.86
2018-08-13T08:53:25.034Z,991.82
2018-08-13T08:54:25.039Z,991.82
2018-08-13T08:55:25.046Z,991.83
2018-08-13T08:56:25.053Z,991.83
2018-08-13T08:57:25.062Z,991.80
2018-08-13T08:58:25.069Z,991.79
2018-08-13T08:59:25.074Z,991.76
2018-08-13T09:00:25.082Z,991.82
2018-08-13T09:01:25.090Z,991.78
2018-08-13T09:02:25.096Z,991.85
2018-08-13T09:03:25.102Z,991.78
2018-08-13T09:04:25.111Z,991.84
2018-08-13T09:05:25.116Z,991.85
2018-08-13T09:06:25.125Z,991.83
2018-08-13T09:07:25.131Z,991.82
2018-08-13T09:08:25.138Z,991.86
2018-08-13T09:09:25.146Z,991.77
2018-08-13T09:10:25.156Z,991.80
2018-08-13T09:11:25.161Z,991.80
2018-08-13T09:12:25.169Z,991.74
2018-08-13T09:13:25.177Z,991.75
2018-08-13T09:14:25.197Z,991.79
2018-08-13T09:15:25.195Z,991.73
2018-08-13T09:16:25.203Z,991.72
2018-08-13T09:17:25.212Z,991.73
2018-08-13T09:18:25.221Z,991.84
2018-08-13T09:19:25.229Z,991.81
2018-08-13T09:20:25.236Z,991.80
2018-08-13T09:21:25.245Z,991.71
2018-08-13T09:22:25.253Z,991.76
2018-08-13T09:23:25.259Z,991.70
2018-08-13T09:24:25.274Z,991.72
2018-08-13T09:25:25.322Z,991.72
2018-08-13T09:26:25.281Z,991.67
2018-08-13T09:27:25.287Z,991.70
2018-08-13T09:28:25.292Z,991.69
2018-08-13T09:29:25.297Z,991.69
2018-08-13T09:30:25.303Z,991.64
2018-08-13T09:31:25.310Z,991.66
2018-08-13T09:32:25.311Z,991.65
2018-08-13T09:33:25.319Z,991.61
2018-08-13T09:34:25.321Z,991.64
2018-08-13T09:35:25.322Z,991.61
2018-08-13T09:36:25.327Z,991.67
2018-08-13T09:37:25.331Z,991.65
2018-08-13T09:38:25.335Z,991.63
2018-08-13T09:39:25.336Z,991.65
2018-08-13T09:40:25.340Z,991.62
2018-08-13T09:41:25.344Z,991.63
2018-08-13T09:42:25.348Z,991.74
2018-08-13T09:43:25.349Z,991.71
2018-08-13T09:44:25.355Z,991.74
2018-08-13T09:45:25.356Z,991.68
2018-08-13T09:46:25.359Z,991.74
2018-08-13T09:47:25.361Z,991.67
2018-08-13T09:48:25.365Z,991.67
2018-08-13T09:49:25.367Z,991.65
2018-08-13T09:50:25.370Z,991.64
2018-08-13T09:51:25.373Z,991.66
2018-08-13T09:52:25.375Z,991.57
2018-08-13T09:53:25.378Z,991.55
2018-08-13T09:54:25.383Z,991.54
2018-08-13T09:55:25.386Z,991.44
2018-08-13T09:56:25.388Z,991.53
2018-08-13T09:57:25.388Z,991.55
2018-08-13T09:58:25.392Z,991.49
2018-08-13T09:59:25.393Z,991.40
2018-08-13T10:00:25.492Z,991.45
2018-08-13T10:01:25.402Z,991.39
2018-08-13T10:02:25.405Z,991.45
2018-08-13T10:03:25.409Z,991.45
2018-08-13T10:04:25.432Z,991.47
2018-08-13T10:05:25.419Z,991.55
2018-08-13T10:06:25.424Z,991.59
2018-08-13T10:07:25.429Z,991.64
2018-08-13T10:08:25.433Z,991.64
2018-08-13T10:09:25.500Z,991.69
2018-08-13T10:10:25.442Z,991.58
2018-08-13T10:11:25.446Z,991.52
2018-08-13T10:12:25.459Z,991.53
2018-08-13T10:13:25.455Z,991.46
2018-08-13T10:14:25.460Z,991.50
2018-08-13T10:15:25.462Z,991.48
2018-08-13T10:16:25.466Z,991.52
2018-08-13T10:17:25.473Z,991.55
2018-08-13T10:18:25.473Z,991.51
2018-08-13T10:19:25.474Z,991.60
2018-08-13T10:20:25.479Z,991.45
2018-08-13T10:21:25.479Z,991.45
2018-08-13T10:22:25.483Z,991.40
2018-08-13T10:23:25.485Z,991.54
2018-08-13T10:24:25.488Z,991.41
2018-08-13T10:25:25.491Z,991.46
2018-08-13T10:26:25.495Z,991.39
2018-08-13T10:27:25.499Z,991.44
2018-08-13T10:28:25.503Z,991.49
2018-08-13T10:29:25.508Z,991.40
2018-08-13T10:30:25.515Z,991.47
2018-08-13T10:31:25.520Z,991.38
2018-08-13T10:32:25.528Z,991.40
2018-08-13T10:33:25.538Z,991.36
2018-08-13T10:34:25.543Z,991.29
2018-08-13T10:35:25.550Z,991.37
2018-08-13T10:36:25.557Z,991.32
2018-08-13T10:37:25.604Z,991.26
2018-08-13T10:38:25.571Z,991.29
2018-08-13T10:39:25.577Z,991.32
2018-08-13T10:40:25.583Z,991.27
2018-08-13T10:41:25.589Z,991.30
2018-08-13T10:42:25.594Z,991.23
2018-08-13T10:43:25.647Z,991.26
2018-08-13T10:44:25.604Z,991.25
2018-08-13T10:45:25.609Z,991.26
2018-08-13T10:46:25.614Z,991.32
2018-08-13T10:47:25.617Z,991.29
2018-08-13T10:48:25.622Z,991.23
2018-08-13T10:49:25.628Z,991.23
2018-08-13T10:50:25.630Z,991.34
2018-08-13T10:51:25.632Z,991.31
2018-08-13T10:52:25.635Z,991.20
2018-08-13T10:53:25.639Z,991.34
2018-08-13T10:54:25.645Z,991.51
2018-08-13T10:55:25.640Z,991.55
2018-08-13T10:56:25.640Z,991.64
2018-08-13T10:57:25.642Z,991.84
2018-08-13T10:58:25.639Z,991.74
2018-08-13T10:59:25.637Z,991.73
2018-08-13T11:00:25.637Z,991.81
2018-08-13T11:01:25.633Z,991.71
2018-08-13T11:02:25.634Z,991.71
2018-08-13T11:03:25.626Z,991.65
2018-08-13T11:04:25.628Z,991.67
2018-08-13T11:05:25.623Z,991.67
2018-08-13T11:06:25.616Z,991.61
2018-08-13T11:07:25.613Z,991.65
2018-08-13T11:08:25.608Z,991.63
2018-08-13T11:09:25.604Z,991.61
2018-08-13T11:10:25.675Z,991.61
2018-08-13T11:11:25.594Z,991.67
2018-08-13T11:12:25.590Z,991.66
2018-08-13T11:13:25.613Z,991.56
2018-08-13T11:14:25.581Z,991.59
2018-08-13T11:15:25.575Z,991.57
2018-08-13T11:16:25.570Z,991.58
2018-08-13T11:17:25.566Z,991.55
2018-08-13T11:18:25.561Z,991.48
2018-08-13T11:19:25.567Z,991.44
2018-08-13T11:20:25.551Z,991.38
2018-08-13T11:21:25.547Z,991.40
2018-08-13T11:22:25.542Z,991.45
2018-08-13T11:23:25.537Z,991.40
2018-08-13T11:24:25.532Z,991.46
2018-08-13T11:25:25.532Z,991.46
2018-08-13T11:26:25.527Z,991.40
2018-08-13T11:27:25.519Z,991.32
2018-08-13T11:28:25.515Z,991.32
2018-08-13T11:29:25.511Z,991.35
2018-08-13T11:30:25.507Z,991.31
2018-08-13T11:31:25.505Z,991.31
2018-08-13T11:32:25.499Z,991.32
2018-08-13T11:33:25.496Z,991.35
2018-08-13T11:34:25.505Z,991.31
2018-08-13T11:35:25.489Z,991.36
2018-08-13T11:36:25.486Z,991.37
2018-08-13T11:37:25.484Z,991.27
2018-08-13T11:38:25.480Z,991.23
2018-08-13T11:39:25.479Z,991.26
2018-08-13T11:40:25.474Z,991.25
2018-08-13T11:41:25.476Z,991.26
2018-08-13T11:42:25.470Z,991.17
2018-08-13T11:43:25.466Z,991.19
2018-08-13T11:44:25.464Z,991.25
2018-08-13T11:45:25.461Z,991.26
2018-08-13T11:46:25.551Z,991.29
2018-08-13T11:47:25.456Z,991.29
2018-08-13T11:48:25.453Z,991.28
2018-08-13T11:49:25.468Z,991.25
2018-08-13T11:50:25.448Z,991.24
2018-08-13T11:51:25.445Z,991.28
2018-08-13T11:52:25.445Z,991.18
2018-08-13T11:53:25.441Z,991.21
2018-08-13T11:54:25.438Z,991.16
2018-08-13T11:55:25.434Z,991.22
2018-08-13T11:56:25.493Z,991.16
2018-08-13T11:57:25.429Z,991.14
2018-08-13T11:58:25.426Z,991.18
2018-08-13T11:59:25.422Z,991.16
2018-08-13T12:00:25.419Z,991.21
2018-08-13T12:01:25.417Z,991.19
2018-08-13T12:02:25.414Z,991.21
2018-08-13T12:03:25.410Z,991.19
2018-08-13T12:04:25.421Z,991.21
2018-08-13T12:05:25.404Z,991.21
2018-08-13T12:06:25.401Z,991.27
2018-08-13T12:07:25.398Z,991.36
2018-08-13T12:08:25.411Z,991.34
2018-08-13T12:09:25.395Z,991.34
2018-08-13T12:10:25.389Z,991.37
2018-08-13T12:11:25.386Z,991.31
2018-08-13T12:12:25.382Z,991.30
2018-08-13T12:13:25.380Z,991.25
2018-08-13T12:14:25.382Z,991.31
2018-08-13T12:15:25.376Z,991.28
2018-08-13T12:16:25.374Z,991.34
2018-08-13T12:17:25.375Z,991.32
2018-08-13T12:18:25.375Z,991.29
2018-08-13T12:19:25.398Z,991.29
2018-08-13T12:20:25.377Z,991.19
2018-08-13T12:21:25.380Z,991.19
2018-08-13T12:22:25.382Z,991.24
2018-08-13T12:23:25.384Z,991.23
2018-08-13T12:24:25.388Z,991.26
2018-08-13T12:25:25.390Z,991.28
2018-08-13T12:26:25.425Z,991.21
2018-08-13T12:27:25.397Z,991.36
2018-08-13T12:28:25.402Z,991.30